sensor_id;sensor_type;location;lat;lon;timestamp;pressure;altitude;pressure_sealevel;temperature;humidity
45763;BME280;37512;52.408;13.356;2024-03-07T00:01:56;102096.28;;;6.79;100.00
45763;BME280;37512;52.408;13.356;2024-03-07T00:05:57;102107.06;;;7.00;100.00
45763;BME280;37512;52.408;13.356;2024-03-07T00:09:59;102101.47;;;6.69;100.00
45763;BME280;37512;52.408;13.356;2024-03-07T00:14:01;102091.53;;;6.71;100.00
45763;BME280;37512;52.408;13.356;2024-03-07T00:18:02;102095.88;;;6.72;100.00
45763;BME280;37512;52.408;13.356;2024-03-07T00:22:04;102103.25;;;6.57;100.00
45763;BME280;37512;52.408;13.356;2024-03-07T00:26:06;102102.44;;;6.68;100.00
45763;BME280;37512;52.408;13.356;2024-03-07T00:30:07;102097.72;;;6.72;100.00
45763;BME280;37512;52.408;13.356;2024-03-07T00:34:14;102101.09;;;6.62;100.00
45763;BME280;37512;52.408;13.356;2024-03-07T00:38:26;102104.88;;;6.93;100.00
45763;BME280;37512;52.408;13.356;2024-03-07T00:42:28;102105.69;;;6.72;100.00
45763;BME280;37512;52.408;13.356;2024-03-07T00:46:30;102101.97;;;6.85;100.00
45763;BME280;37512;52.408;13.356;2024-03-07T00:50:32;102092.38;;;6.60;100.00
45763;BME280;37512;52.408;13.356;2024-03-07T00:54:33;102092.75;;;6.67;100.00
45763;BME280;37512;52.408;13.356;2024-03-07T00:58:36;102086.31;;;6.58;100.00
45763;BME280;37512;52.408;13.356;2024-03-07T01:02:37;102093.72;;;6.88;100.00
45763;BME280;37512;52.408;13.356;2024-03-07T01:06:40;102085.44;;;6.58;100.00
45763;BME280;37512;52.408;13.356;2024-03-07T01:10:42;102088.59;;;6.52;100.00
45763;BME280;37512;52.408;13.356;2024-03-07T01:14:44;102079.94;;;6.83;100.00
45763;BME280;37512;52.408;13.356;2024-03-07T01:18:47;102083.41;;;6.73;100.00
45763;BME280;37512;52.408;13.356;2024-03-07T01:22:53;102085.13;;;6.62;100.00
45763;BME280;37512;52.408;13.356;2024-03-07T01:26:55;102086.56;;;6.20;100.00
45763;BME280;37512;52.408;13.356;2024-03-07T01:30:57;102089.44;;;6.52;100.00
45763;BME280;37512;52.408;13.356;2024-03-07T01:34:59;102087.88;;;6.50;100.00
45763;BME280;37512;52.408;13.356;2024-03-07T01:39:01;102089.69;;;6.49;100.00
45763;BME280;37512;52.408;13.356;2024-03-07T01:43:04;102095.69;;;6.40;100.00
45763;BME280;37512;52.408;13.356;2024-03-07T01:47:07;102081.84;;;6.13;100.00
45763;BME280;37512;52.408;13.356;2024-03-07T01:51:09;102088.56;;;6.29;100.00
45763;BME280;37512;52.408;13.356;2024-03-07T01:55:11;102088.03;;;6.13;100.00
45763;BME280;37512;52.408;13.356;2024-03-07T01:59:15;102083.50;;;6.02;100.00
45763;BME280;37512;52.408;13.356;2024-03-07T02:03:17;102093.34;;;6.13;100.00
45763;BME280;37512;52.408;13.356;2024-03-07T02:07:18;102085.50;;;6.23;100.00
45763;BME280;37512;52.408;13.356;2024-03-07T02:11:20;102082.22;;;6.08;100.00
45763;BME280;37512;52.408;13.356;2024-03-07T02:15:22;102084.44;;;5.90;100.00
45763;BME280;37512;52.408;13.356;2024-03-07T02:19:24;102087.09;;;5.90;100.00
45763;BME280;37512;52.408;13.356;2024-03-07T02:23:26;102079.75;;;6.05;100.00
45763;BME280;37512;52.408;13.356;2024-03-07T02:27:29;102081.09;;;5.87;100.00
45763;BME280;37512;52.408;13.356;2024-03-07T02:31:30;102069.41;;;5.65;100.00
45763;BME280;37512;52.408;13.356;2024-03-07T02:35:38;102073.06;;;5.52;100.00
45763;BME280;37512;52.408;13.356;2024-03-07T02:39:40;102063.72;;;5.46;100.00
45763;BME280;37512;52.408;13.356;2024-03-07T02:43:42;102069.50;;;5.64;100.00
45763;BME280;37512;52.408;13.356;2024-03-07T02:47:43;102068.09;;;5.71;100.00
45763;BME280;37512;52.408;13.356;2024-03-07T02:51:46;102078.88;;;5.20;100.00
45763;BME280;37512;52.408;13.356;2024-03-07T02:55:48;102063.00;;;5.44;100.00
45763;BME280;37512;52.408;13.356;2024-03-07T02:59:50;102071.63;;;5.35;100.00
45763;BME280;37512;52.408;13.356;2024-03-07T03:03:52;102060.09;;;5.47;100.00
45763;BME280;37512;52.408;13.356;2024-03-07T03:07:54;102063.03;;;5.55;100.00
45763;BME280;37512;52.408;13.356;2024-03-07T03:11:56;102066.22;;;5.60;100.00
45763;BME280;37512;52.408;13.356;2024-03-07T03:15:57;102065.31;;;5.49;100.00
45763;BME280;37512;52.408;13.356;2024-03-07T03:19:59;102075.28;;;5.58;100.00
45763;BME280;37512;52.408;13.356;2024-03-07T03:24:00;102070.00;;;5.45;100.00
45763;BME280;37512;52.408;13.356;2024-03-07T03:28:05;102063.66;;;5.35;100.00
45763;BME280;37512;52.408;13.356;2024-03-07T03:32:06;102073.13;;;5.39;100.00
45763;BME280;37512;52.408;13.356;2024-03-07T03:36:09;102075.97;;;5.36;100.00
45763;BME280;37512;52.408;13.356;2024-03-07T03:40:12;102084.66;;;5.14;100.00
45763;BME280;37512;52.408;13.356;2024-03-07T03:44:14;102083.34;;;5.32;100.00
45763;BME280;37512;52.408;13.356;2024-03-07T03:48:16;102081.72;;;5.42;100.00
45763;BME280;37512;52.408;13.356;2024-03-07T03:52:17;102083.47;;;5.18;100.00
45763;BME280;37512;52.408;13.356;2024-03-07T03:56:19;102087.97;;;5.05;100.00
45763;BME280;37512;52.408;13.356;2024-03-07T04:00:21;102093.81;;;4.84;100.00
45763;BME280;37512;52.408;13.356;2024-03-07T04:04:24;102101.59;;;4.75;100.00
45763;BME280;37512;52.408;13.356;2024-03-07T04:08:27;102098.50;;;4.56;100.00
45763;BME280;37512;52.408;13.356;2024-03-07T04:12:29;102101.91;;;4.45;100.00
45763;BME280;37512;52.408;13.356;2024-03-07T04:16:30;102095.78;;;4.05;100.00
45763;BME280;37512;52.408;13.356;2024-03-07T04:20:32;102107.63;;;4.39;100.00
45763;BME280;37512;52.408;13.356;2024-03-07T04:24:37;102106.03;;;4.49;100.00
45763;BME280;37512;52.408;13.356;2024-03-07T04:28:39;102098.25;;;4.33;100.00
45763;BME280;37512;52.408;13.356;2024-03-07T04:32:41;102084.72;;;3.98;100.00
45763;BME280;37512;52.408;13.356;2024-03-07T04:36:43;102093.06;;;4.19;100.00
45763;BME280;37512;52.408;13.356;2024-03-07T04:40:45;102096.84;;;4.02;100.00
45763;BME280;37512;52.408;13.356;2024-03-07T04:44:47;102092.28;;;3.77;100.00
45763;BME280;37512;52.408;13.356;2024-03-07T04:48:50;102099.84;;;3.83;100.00
45763;BME280;37512;52.408;13.356;2024-03-07T04:52:52;102098.84;;;3.72;100.00
45763;BME280;37512;52.408;13.356;2024-03-07T04:56:53;102098.69;;;3.60;100.00
45763;BME280;37512;52.408;13.356;2024-03-07T05:00:55;102106.81;;;3.72;100.00
45763;BME280;37512;52.408;13.356;2024-03-07T05:04:57;102108.69;;;3.70;100.00
45763;BME280;37512;52.408;13.356;2024-03-07T05:08:59;102108.53;;;3.58;100.00
45763;BME280;37512;52.408;13.356;2024-03-07T05:13:00;102116.50;;;3.44;100.00
45763;BME280;37512;52.408;13.356;2024-03-07T05:17:02;102111.03;;;3.47;100.00
45763;BME280;37512;52.408;13.356;2024-03-07T05:21:07;102111.19;;;3.58;100.00
45763;BME280;37512;52.408;13.356;2024-03-07T05:25:31;102119.38;;;3.41;100.00
45763;BME280;37512;52.408;13.356;2024-03-07T05:29:33;102124.69;;;3.27;100.00
45763;BME280;37512;52.408;13.356;2024-03-07T05:33:34;102123.81;;;3.41;100.00
45763;BME280;37512;52.408;13.356;2024-03-07T05:37:36;102124.31;;;3.05;100.00
45763;BME280;37512;52.408;13.356;2024-03-07T05:41:38;102128.66;;;3.20;100.00
45763;BME280;37512;52.408;13.356;2024-03-07T05:45:40;102136.31;;;3.39;100.00
45763;BME280;37512;52.408;13.356;2024-03-07T05:49:43;102129.22;;;3.25;100.00
45763;BME280;37512;52.408;13.356;2024-03-07T05:53:45;102139.72;;;3.41;100.00
45763;BME280;37512;52.408;13.356;2024-03-07T05:57:46;102136.13;;;3.42;100.00
45763;BME280;37512;52.408;13.356;2024-03-07T06:01:48;102142.78;;;3.20;100.00
45763;BME280;37512;52.408;13.356;2024-03-07T06:05:50;102141.44;;;3.27;100.00
45763;BME280;37512;52.408;13.356;2024-03-07T06:09:52;102135.66;;;3.21;100.00
45763;BME280;37512;52.408;13.356;2024-03-07T06:13:53;102139.72;;;3.12;100.00
45763;BME280;37512;52.408;13.356;2024-03-07T06:17:55;102147.00;;;3.23;100.00
45763;BME280;37512;52.408;13.356;2024-03-07T06:21:57;102153.66;;;3.30;100.00
45763;BME280;37512;52.408;13.356;2024-03-07T06:25:58;102154.00;;;3.38;100.00
45763;BME280;37512;52.408;13.356;2024-03-07T06:30:02;102148.25;;;3.31;100.00
45763;BME280;37512;52.408;13.356;2024-03-07T06:34:04;102155.06;;;3.21;100.00
45763;BME280;37512;52.408;13.356;2024-03-07T06:38:06;102154.00;;;3.10;100.00
45763;BME280;37512;52.408;13.356;2024-03-07T06:42:09;102162.63;;;3.27;100.00
45763;BME280;37512;52.408;13.356;2024-03-07T06:46:14;102161.66;;;3.43;100.00
45763;BME280;37512;52.408;13.356;2024-03-07T06:50:18;102165.91;;;3.59;100.00
45763;BME280;37512;52.408;13.356;2024-03-07T06:54:37;102167.47;;;3.76;100.00
45763;BME280;37512;52.408;13.356;2024-03-07T06:58:41;102174.44;;;3.65;100.00
45763;BME280;37512;52.408;13.356;2024-03-07T07:02:43;102170.88;;;3.78;100.00
45763;BME280;37512;52.408;13.356;2024-03-07T07:06:46;102164.78;;;3.90;100.00
45763;BME280;37512;52.408;13.356;2024-03-07T07:10:47;102176.59;;;3.99;100.00
45763;BME280;37512;52.408;13.356;2024-03-07T07:14:49;102175.66;;;4.00;100.00
45763;BME280;37512;52.408;13.356;2024-03-07T07:18:51;102176.41;;;4.02;97.99
45763;BME280;37512;52.408;13.356;2024-03-07T07:22:53;102173.34;;;4.08;97.30
45763;BME280;37512;52.408;13.356;2024-03-07T07:26:56;102180.72;;;4.30;94.38
45763;BME280;37512;52.408;13.356;2024-03-07T07:30:57;102182.84;;;4.25;92.75
45763;BME280;37512;52.408;13.356;2024-03-07T07:34:59;102177.53;;;3.98;91.70
45763;BME280;37512;52.408;13.356;2024-03-07T07:39:01;102177.22;;;4.30;89.57
45763;BME280;37512;52.408;13.356;2024-03-07T07:43:02;102175.91;;;4.49;88.20
45763;BME280;37512;52.408;13.356;2024-03-07T07:47:05;102180.56;;;4.46;87.25
45763;BME280;37512;52.408;13.356;2024-03-07T07:51:07;102174.88;;;4.65;84.33
45763;BME280;37512;52.408;13.356;2024-03-07T07:55:09;102181.06;;;4.91;81.34
45763;BME280;37512;52.408;13.356;2024-03-07T07:59:16;102167.47;;;5.08;80.18
45763;BME280;37512;52.408;13.356;2024-03-07T08:03:18;102181.44;;;5.35;79.71
45763;BME280;37512;52.408;13.356;2024-03-07T08:07:19;102174.72;;;5.55;76.05
45763;BME280;37512;52.408;13.356;2024-03-07T08:11:21;102169.56;;;5.78;74.16
45763;BME280;37512;52.408;13.356;2024-03-07T08:15:23;102173.41;;;5.73;72.86
45763;BME280;37512;52.408;13.356;2024-03-07T08:19:24;102175.53;;;5.68;72.56
45763;BME280;37512;52.408;13.356;2024-03-07T08:23:26;102175.97;;;6.12;71.93
45763;BME280;37512;52.408;13.356;2024-03-07T08:27:30;102158.25;;;6.34;69.22
45763;BME280;37512;52.408;13.356;2024-03-07T08:31:31;102174.00;;;6.38;68.89
45763;BME280;37512;52.408;13.356;2024-03-07T08:35:33;102169.34;;;6.52;68.60
45763;BME280;37512;52.408;13.356;2024-03-07T08:39:35;102176.22;;;6.44;66.79
45763;BME280;37512;52.408;13.356;2024-03-07T08:43:36;102175.56;;;6.64;66.06
45763;BME280;37512;52.408;13.356;2024-03-07T08:47:38;102180.22;;;7.07;63.88
45763;BME280;37512;52.408;13.356;2024-03-07T08:51:40;102182.63;;;6.87;62.40
45763;BME280;37512;52.408;13.356;2024-03-07T08:55:42;102178.06;;;6.54;60.97
45763;BME280;37512;52.408;13.356;2024-03-07T08:59:44;102176.81;;;6.93;61.35
45763;BME280;37512;52.408;13.356;2024-03-07T09:03:45;102174.53;;;7.22;60.04
45763;BME280;37512;52.408;13.356;2024-03-07T09:07:48;102175.63;;;7.53;58.92
45763;BME280;37512;52.408;13.356;2024-03-07T09:11:50;102176.69;;;7.84;57.37
45763;BME280;37512;52.408;13.356;2024-03-07T09:15:51;102164.22;;;8.17;55.94
45763;BME280;37512;52.408;13.356;2024-03-07T09:19:53;102169.91;;;8.12;54.99
45763;BME280;37512;52.408;13.356;2024-03-07T09:23:55;102167.00;;;8.48;54.09
45763;BME280;37512;52.408;13.356;2024-03-07T09:27:59;102169.22;;;8.84;53.40
45763;BME280;37512;52.408;13.356;2024-03-07T09:32:01;102168.91;;;8.98;52.48
45763;BME280;37512;52.408;13.356;2024-03-07T09:36:04;102169.75;;;8.99;53.59
45763;BME280;37512;52.408;13.356;2024-03-07T09:40:07;102160.50;;;8.61;52.40
45763;BME280;37512;52.408;13.356;2024-03-07T09:44:18;102164.59;;;9.07;50.59
45763;BME280;37512;52.408;13.356;2024-03-07T09:48:24;102166.66;;;9.24;48.74
45763;BME280;37512;52.408;13.356;2024-03-07T09:52:29;102162.88;;;9.77;48.68
45763;BME280;37512;52.408;13.356;2024-03-07T09:56:31;102160.81;;;10.00;47.73
45763;BME280;37512;52.408;13.356;2024-03-07T10:00:35;102157.94;;;9.32;46.29
45763;BME280;37512;52.408;13.356;2024-03-07T10:04:42;102158.72;;;9.13;47.61
45763;BME280;37512;52.408;13.356;2024-03-07T10:08:46;102154.19;;;8.62;48.39
45763;BME280;37512;52.408;13.356;2024-03-07T10:12:51;102156.94;;;8.51;49.07
45763;BME280;37512;52.408;13.356;2024-03-07T10:16:55;102152.16;;;8.96;47.67
45763;BME280;37512;52.408;13.356;2024-03-07T10:20:59;102141.19;;;8.99;47.51
45763;BME280;37512;52.408;13.356;2024-03-07T10:25:03;102140.81;;;9.04;47.62
45763;BME280;37512;52.408;13.356;2024-03-07T10:29:04;102134.91;;;9.41;46.08
45763;BME280;37512;52.408;13.356;2024-03-07T10:33:08;102126.97;;;9.79;45.33
45763;BME280;37512;52.408;13.356;2024-03-07T10:37:10;102132.47;;;9.97;44.64
45763;BME280;37512;52.408;13.356;2024-03-07T10:41:12;102127.97;;;9.97;44.75
45763;BME280;37512;52.408;13.356;2024-03-07T10:45:18;102120.25;;;10.23;44.10
45763;BME280;37512;52.408;13.356;2024-03-07T10:49:25;102113.06;;;10.34;44.18
45763;BME280;37512;52.408;13.356;2024-03-07T10:58:02;102109.56;;;11.72;41.97
45763;BME280;37512;52.408;13.356;2024-03-07T11:06:28;102112.31;;;12.07;41.29
45763;BME280;37512;52.408;13.356;2024-03-07T11:10:30;102119.06;;;12.12;41.55
45763;BME280;37512;52.408;13.356;2024-03-07T11:14:33;102108.72;;;12.17;40.35
45763;BME280;37512;52.408;13.356;2024-03-07T11:18:38;102108.97;;;11.33;41.52
45763;BME280;37512;52.408;13.356;2024-03-07T11:22:41;102104.47;;;11.78;41.21
45763;BME280;37512;52.408;13.356;2024-03-07T11:26:43;102092.66;;;11.44;41.79
45763;BME280;37512;52.408;13.356;2024-03-07T11:30:44;102079.53;;;12.22;40.42
45763;BME280;37512;52.408;13.356;2024-03-07T11:34:47;102088.28;;;11.88;40.03
45763;BME280;37512;52.408;13.356;2024-03-07T11:38:49;102087.44;;;11.88;39.37
45763;BME280;37512;52.408;13.356;2024-03-07T11:42:52;102085.28;;;12.09;39.55
45763;BME280;37512;52.408;13.356;2024-03-07T11:46:54;102073.31;;;12.21;38.87
45763;BME280;37512;52.408;13.356;2024-03-07T11:50:56;102081.38;;;12.47;37.72
45763;BME280;37512;52.408;13.356;2024-03-07T11:54:58;102072.44;;;13.24;36.44
45763;BME280;37512;52.408;13.356;2024-03-07T11:59:06;102073.34;;;12.73;38.02
45763;BME280;37512;52.408;13.356;2024-03-07T12:03:15;102070.75;;;12.37;36.48
45763;BME280;37512;52.408;13.356;2024-03-07T12:07:19;102063.63;;;12.28;38.05
45763;BME280;37512;52.408;13.356;2024-03-07T12:11:24;102057.09;;;12.31;37.36
45763;BME280;37512;52.408;13.356;2024-03-07T12:15:27;102052.94;;;12.62;38.24
45763;BME280;37512;52.408;13.356;2024-03-07T12:19:31;102042.91;;;13.41;35.46
45763;BME280;37512;52.408;13.356;2024-03-07T12:23:33;102058.91;;;13.16;35.71
45763;BME280;37512;52.408;13.356;2024-03-07T12:27:37;102041.75;;;12.49;36.21
45763;BME280;37512;52.408;13.356;2024-03-07T12:31:41;102043.59;;;12.23;36.39
45763;BME280;37512;52.408;13.356;2024-03-07T12:35:44;102033.44;;;13.28;35.86
45763;BME280;37512;52.408;13.356;2024-03-07T12:39:45;102041.34;;;12.62;36.48
45763;BME280;37512;52.408;13.356;2024-03-07T12:44:00;102026.03;;;12.96;36.62
45763;BME280;37512;52.408;13.356;2024-03-07T12:48:02;102027.78;;;13.14;34.51
45763;BME280;37512;52.408;13.356;2024-03-07T12:52:06;102027.50;;;12.83;35.62
45763;BME280;37512;52.408;13.356;2024-03-07T12:56:09;102028.63;;;12.72;36.50
45763;BME280;37512;52.408;13.356;2024-03-07T13:00:11;102013.13;;;13.50;34.87
45763;BME280;37512;52.408;13.356;2024-03-07T13:04:20;102009.53;;;13.25;34.91
45763;BME280;37512;52.408;13.356;2024-03-07T13:08:21;102021.69;;;12.95;35.71
45763;BME280;37512;52.408;13.356;2024-03-07T13:12:28;102016.97;;;12.63;34.81
45763;BME280;37512;52.408;13.356;2024-03-07T13:16:30;102012.06;;;13.35;33.61
45763;BME280;37512;52.408;13.356;2024-03-07T13:20:33;101997.13;;;13.49;32.54
45763;BME280;37512;52.408;13.356;2024-03-07T13:24:35;101995.50;;;13.72;31.59
45763;BME280;37512;52.408;13.356;2024-03-07T13:28:40;102005.69;;;12.86;33.54
45763;BME280;37512;52.408;13.356;2024-03-07T13:32:43;101993.47;;;14.07;31.47
45763;BME280;37512;52.408;13.356;2024-03-07T13:36:46;101995.28;;;13.41;32.33
45763;BME280;37512;52.408;13.356;2024-03-07T13:40:48;101998.00;;;12.65;31.80
45763;BME280;37512;52.408;13.356;2024-03-07T13:44:51;101984.72;;;13.56;31.48
45763;BME280;37512;52.408;13.356;2024-03-07T13:48:52;101981.94;;;14.54;31.47
45763;BME280;37512;52.408;13.356;2024-03-07T13:52:55;101982.03;;;13.80;31.90
45763;BME280;37512;52.408;13.356;2024-03-07T13:57:34;101986.06;;;13.76;31.57
45763;BME280;37512;52.408;13.356;2024-03-07T14:06:38;101978.47;;;14.04;32.10
45763;BME280;37512;52.408;13.356;2024-03-07T14:32:42;101987.75;;;12.08;33.99
45763;BME280;37512;52.408;13.356;2024-03-07T14:36:53;101973.72;;;12.23;34.12
45763;BME280;37512;52.408;13.356;2024-03-07T14:40:58;101963.31;;;13.46;32.88
45763;BME280;37512;52.408;13.356;2024-03-07T14:45:00;101978.63;;;12.53;34.27
45763;BME280;37512;52.408;13.356;2024-03-07T14:49:07;101968.53;;;12.89;34.03
45763;BME280;37512;52.408;13.356;2024-03-07T14:53:11;101968.56;;;12.29;32.93
45763;BME280;37512;52.408;13.356;2024-03-07T14:57:13;101963.28;;;12.46;33.39
45763;BME280;37512;52.408;13.356;2024-03-07T15:01:15;101961.56;;;12.11;33.82
45763;BME280;37512;52.408;13.356;2024-03-07T15:05:17;101964.50;;;12.51;34.08
45763;BME280;37512;52.408;13.356;2024-03-07T15:09:21;101965.19;;;12.01;34.50
45763;BME280;37512;52.408;13.356;2024-03-07T15:13:24;101959.22;;;11.90;34.50
45763;BME280;37512;52.408;13.356;2024-03-07T15:17:25;101964.56;;;12.07;34.65
45763;BME280;37512;52.408;13.356;2024-03-07T15:21:27;101947.44;;;10.84;36.63
45763;BME280;37512;52.408;13.356;2024-03-07T15:25:32;101942.13;;;10.47;37.77
45763;BME280;37512;52.408;13.356;2024-03-07T15:29:34;101945.66;;;9.91;39.13
45763;BME280;37512;52.408;13.356;2024-03-07T15:33:38;101951.59;;;10.69;37.41
45763;BME280;37512;52.408;13.356;2024-03-07T15:37:39;101958.00;;;10.85;38.10
45763;BME280;37512;52.408;13.356;2024-03-07T15:41:42;101950.78;;;10.31;38.00
45763;BME280;37512;52.408;13.356;2024-03-07T15:45:44;101951.41;;;9.86;38.61
45763;BME280;37512;52.408;13.356;2024-03-07T15:49:45;101953.84;;;9.41;38.45
45763;BME280;37512;52.408;13.356;2024-03-07T15:53:47;101946.78;;;9.50;39.31
45763;BME280;37512;52.408;13.356;2024-03-07T15:57:56;101951.84;;;9.53;39.14
45763;BME280;37512;52.408;13.356;2024-03-07T16:01:57;101949.44;;;9.11;40.38
45763;BME280;37512;52.408;13.356;2024-03-07T16:05:59;101945.25;;;9.47;39.76
45763;BME280;37512;52.408;13.356;2024-03-07T16:10:01;101941.28;;;9.13;40.28
45763;BME280;37512;52.408;13.356;2024-03-07T16:14:02;101938.25;;;8.77;41.74
45763;BME280;37512;52.408;13.356;2024-03-07T16:18:04;101947.25;;;8.76;41.82
45763;BME280;37512;52.408;13.356;2024-03-07T16:22:07;101952.03;;;8.42;41.82
45763;BME280;37512;52.408;13.356;2024-03-07T16:26:08;101940.72;;;8.08;42.71
45763;BME280;37512;52.408;13.356;2024-03-07T16:30:11;101941.88;;;8.15;43.13
45763;BME280;37512;52.408;13.356;2024-03-07T16:34:12;101937.94;;;7.89;43.49
45763;BME280;37512;52.408;13.356;2024-03-07T16:38:14;101944.97;;;7.69;44.17
45763;BME280;37512;52.408;13.356;2024-03-07T16:42:16;101950.38;;;7.78;44.56
45763;BME280;37512;52.408;13.356;2024-03-07T16:46:17;101948.06;;;7.53;45.61
45763;BME280;37512;52.408;13.356;2024-03-07T16:50:24;101940.84;;;7.12;46.59
45763;BME280;37512;52.408;13.356;2024-03-07T16:54:28;101943.28;;;7.47;46.19
45763;BME280;37512;52.408;13.356;2024-03-07T16:58:30;101945.22;;;7.02;46.95
45763;BME280;37512;52.408;13.356;2024-03-07T17:02:32;101957.84;;;6.88;47.43
45763;BME280;37512;52.408;13.356;2024-03-07T17:06:34;101951.97;;;7.17;47.21
45763;BME280;37512;52.408;13.356;2024-03-07T17:10:37;101954.34;;;6.88;47.68
45763;BME280;37512;52.408;13.356;2024-03-07T17:14:42;101955.50;;;7.06;47.58
45763;BME280;37512;52.408;13.356;2024-03-07T17:18:45;101943.34;;;7.24;48.00
45763;BME280;37512;52.408;13.356;2024-03-07T17:22:49;101952.00;;;7.06;48.27
45763;BME280;37512;52.408;13.356;2024-03-07T17:26:51;101947.09;;;6.79;48.53
45763;BME280;37512;52.408;13.356;2024-03-07T17:30:53;101949.00;;;6.77;48.89
45763;BME280;37512;52.408;13.356;2024-03-07T17:34:57;101955.34;;;6.42;49.80
45763;BME280;37512;52.408;13.356;2024-03-07T17:39:01;101958.00;;;6.53;50.03
45763;BME280;37512;52.408;13.356;2024-03-07T17:43:03;101949.75;;;6.56;50.10
45763;BME280;37512;52.408;13.356;2024-03-07T17:47:05;101954.00;;;6.48;50.23
45763;BME280;37512;52.408;13.356;2024-03-07T17:51:12;101953.28;;;6.57;49.61
45763;BME280;37512;52.408;13.356;2024-03-07T17:55:16;101952.44;;;6.68;49.86
45763;BME280;37512;52.408;13.356;2024-03-07T17:59:17;101953.66;;;6.52;50.46
45763;BME280;37512;52.408;13.356;2024-03-07T18:03:25;101952.78;;;6.52;49.58
45763;BME280;37512;52.408;13.356;2024-03-07T18:07:29;101957.03;;;6.43;49.75
45763;BME280;37512;52.408;13.356;2024-03-07T18:11:30;101953.88;;;6.16;51.07
45763;BME280;37512;52.408;13.356;2024-03-07T18:15:34;101957.63;;;6.24;50.65
45763;BME280;37512;52.408;13.356;2024-03-07T18:19:36;101960.31;;;5.89;51.64
45763;BME280;37512;52.408;13.356;2024-03-07T18:23:38;101971.91;;;6.12;52.08
45763;BME280;37512;52.408;13.356;2024-03-07T18:27:39;101977.47;;;5.85;52.78
45763;BME280;37512;52.408;13.356;2024-03-07T18:31:41;101970.34;;;5.27;53.83
45763;BME280;37512;52.408;13.356;2024-03-07T18:35:43;101963.13;;;5.64;53.73
45763;BME280;37512;52.408;13.356;2024-03-07T18:39:47;101965.44;;;5.09;54.95
45763;BME280;37512;52.408;13.356;2024-03-07T18:43:49;101962.25;;;5.28;54.55
45763;BME280;37512;52.408;13.356;2024-03-07T18:47:52;101963.72;;;5.08;54.79
45763;BME280;37512;52.408;13.356;2024-03-07T18:51:54;101958.66;;;5.05;55.79
45763;BME280;37512;52.408;13.356;2024-03-07T18:55:56;101960.00;;;5.35;54.75
45763;BME280;37512;52.408;13.356;2024-03-07T18:59:58;101958.06;;;5.37;55.51
45763;BME280;37512;52.408;13.356;2024-03-07T19:03:59;101970.41;;;5.14;55.76
45763;BME280;37512;52.408;13.356;2024-03-07T19:08:05;101967.41;;;5.19;56.25
45763;BME280;37512;52.408;13.356;2024-03-07T19:12:27;101967.94;;;5.24;56.45
45763;BME280;37512;52.408;13.356;2024-03-07T19:16:29;101969.84;;;5.22;56.82
45763;BME280;37512;52.408;13.356;2024-03-07T19:20:30;101973.28;;;4.74;58.17
45763;BME280;37512;52.408;13.356;2024-03-07T19:24:33;101977.25;;;4.69;58.41
45763;BME280;37512;52.408;13.356;2024-03-07T19:28:35;101974.47;;;4.70;58.39
45763;BME280;37512;52.408;13.356;2024-03-07T19:32:39;101963.53;;;4.99;58.67
45763;BME280;37512;52.408;13.356;2024-03-07T19:36:50;101972.22;;;5.13;57.65
45763;BME280;37512;52.408;13.356;2024-03-07T19:40:54;101976.69;;;4.76;59.10
45763;BME280;37512;52.408;13.356;2024-03-07T19:44:55;101981.16;;;4.63;59.95
45763;BME280;37512;52.408;13.356;2024-03-07T19:48:59;101981.59;;;4.57;60.81
45763;BME280;37512;52.408;13.356;2024-03-07T19:53:00;101980.53;;;4.47;60.78
45763;BME280;37512;52.408;13.356;2024-03-07T19:57:02;101966.97;;;4.13;61.53
45763;BME280;37512;52.408;13.356;2024-03-07T20:01:05;101977.06;;;4.21;62.34
45763;BME280;37512;52.408;13.356;2024-03-07T20:05:13;101980.22;;;4.13;62.84
45763;BME280;37512;52.408;13.356;2024-03-07T20:09:17;101978.19;;;3.91;63.70
45763;BME280;37512;52.408;13.356;2024-03-07T20:13:19;101978.63;;;4.11;63.38
45763;BME280;37512;52.408;13.356;2024-03-07T20:17:21;101974.91;;;4.13;62.57
45763;BME280;37512;52.408;13.356;2024-03-07T20:21:23;101971.31;;;4.40;61.66
45763;BME280;37512;52.408;13.356;2024-03-07T20:25:24;101973.72;;;3.79;63.90
45763;BME280;37512;52.408;13.356;2024-03-07T20:29:29;101968.00;;;3.73;63.00
45763;BME280;37512;52.408;13.356;2024-03-07T20:33:31;101957.19;;;3.88;63.24
45763;BME280;37512;52.408;13.356;2024-03-07T20:37:36;101967.28;;;3.96;62.75
45763;BME280;37512;52.408;13.356;2024-03-07T20:41:37;101961.59;;;3.62;64.00
45763;BME280;37512;52.408;13.356;2024-03-07T20:45:39;101970.63;;;3.73;64.30
45763;BME280;37512;52.408;13.356;2024-03-07T20:49:41;101976.25;;;3.81;64.58
45763;BME280;37512;52.408;13.356;2024-03-07T20:53:44;101969.53;;;3.50;65.07
45763;BME280;37512;52.408;13.356;2024-03-07T20:57:49;101962.44;;;3.23;66.23
45763;BME280;37512;52.408;13.356;2024-03-07T21:01:51;101956.28;;;3.23;66.50
45763;BME280;37512;52.408;13.356;2024-03-07T21:05:53;101963.66;;;3.32;66.60
45763;BME280;37512;52.408;13.356;2024-03-07T21:09:56;101968.94;;;3.72;65.43
45763;BME280;37512;52.408;13.356;2024-03-07T21:13:57;101966.19;;;3.33;66.71
45763;BME280;37512;52.408;13.356;2024-03-07T21:17:59;101957.72;;;3.41;65.72
45763;BME280;37512;52.408;13.356;2024-03-07T21:22:02;101961.13;;;3.43;66.73
45763;BME280;37512;52.408;13.356;2024-03-07T21:26:04;101963.72;;;3.03;68.77
45763;BME280;37512;52.408;13.356;2024-03-07T21:30:06;101966.97;;;2.94;69.06
45763;BME280;37512;52.408;13.356;2024-03-07T21:34:08;101955.97;;;3.27;67.52
45763;BME280;37512;52.408;13.356;2024-03-07T21:38:10;101957.06;;;3.11;68.27